Troy Mills, Iowa
Current Conditions -  °F | °C
As of 2:35 AM on Friday 19 Dec 2014 (Local Time) from KIIB Reporting Station
Overcast Overcast  
Wind Chill: 23°   Ceiling: 7500
Heat Index: 23°   Visibility: 10mi
Dew Point: 21°   Wind: 0mph
Humidity: 93%   Direction: NA
Pressure: 30.29"   Gusts: NA
Location:  42.29°N, 91.68°W
Report Text: KIIB 190835Z AUTO 00000KT 10SM SCT048 OVC075 M05/M06 A3029 RMK AO2
Loading
Personal Weather Stations






























Interactive Weather Map New forecast layout! Learn more

10-Day Weather Forecast

Advertisements
Track Severe Weather on mobile